Time;durP1;ratioP1;P1;durP2;ratioP2;P2;SDS_P1;SDS_P2;PMS_P1;PMS_P2;Temp;Humidity;BMP_temperature;BMP_pressure;BME280_temperature;BME280_humidity;BME280_pressure;Samples;Min_cycle;Max_cycle;Signal;HPM_P1;HPM_P2
2024/03/18 00:02:06;;;;;;;45.47;10.85;;;;;;;-140.81;100.00;62400.31;4990460;28;20033;-56
2024/03/18 00:04:32;;;;;;;44.97;11.90;;;;;;;-140.81;100.00;62400.31;5008161;28;20568;-55
2024/03/18 00:06:58;;;;;;;41.47;11.15;;;;;;;-140.81;100.00;62400.31;4974165;28;20129;-55
2024/03/18 00:09:24;;;;;;;46.05;11.38;;;;;;;-140.81;100.00;62400.31;5007534;28;20045;-56
2024/03/18 00:11:49;;;;;;;30.77;10.65;;;;;;;-140.81;100.00;62400.31;5006434;28;20038;-57
2024/03/18 00:14:15;;;;;;;50.15;12.32;;;;;;;-140.81;100.00;62400.31;5006336;28;20045;-54
2024/03/18 00:16:41;;;;;;;36.92;12.77;;;;;;;-140.81;100.00;62400.31;5005449;28;20037;-54
2024/03/18 00:19:07;;;;;;;46.60;11.00;;;;;;;-140.81;100.00;62400.31;4990206;28;20115;-53
2024/03/18 00:21:33;;;;;;;43.40;11.50;;;;;;;-140.81;100.00;62400.31;5005975;28;20828;-58
2024/03/18 00:23:59;;;;;;;54.45;14.07;;;;;;;-140.81;100.00;62400.31;5005982;28;20042;-57
2024/03/18 00:26:27;;;;;;;44.80;12.23;;;;;;;-140.81;100.00;62400.31;4973618;28;20049;-53
2024/03/18 00:28:53;;;;;;;38.28;12.60;;;;;;;-140.81;100.00;62400.31;5005467;28;20077;-54
2024/03/18 00:31:18;;;;;;;46.45;12.05;;;;;;;-140.81;100.00;62400.31;4973557;28;20057;-58
2024/03/18 00:33:44;;;;;;;47.03;12.68;;;;;;;-140.81;100.00;62400.31;5007138;28;20162;-55
2024/03/18 00:36:10;;;;;;;46.05;11.02;;;;;;;-140.81;100.00;62400.31;5007290;28;20050;-58
2024/03/18 00:38:36;;;;;;;43.72;11.75;;;;;;;-140.81;100.00;62400.31;5005569;28;20095;-52
2024/03/18 00:43:47;;;;;;;46.42;13.13;;;;;;;-140.81;100.00;62400.31;5006052;28;20045;-55
2024/03/18 00:46:12;;;;;;;41.35;11.80;;;;;;;-140.81;100.00;62400.31;5007477;28;20049;-54
2024/03/18 00:48:39;;;;;;;43.75;11.98;;;;;;;-140.81;100.00;62400.31;5038366;28;20037;-52
2024/03/18 00:51:06;;;;;;;57.55;12.68;;;;;;;-140.81;100.00;62400.31;4989612;28;20545;-53
2024/03/18 00:53:32;;;;;;;44.42;11.52;;;;;;;-140.81;100.00;62400.31;5006743;28;20049;-54
2024/03/18 00:55:58;;;;;;;42.53;12.82;;;;;;;-140.81;100.00;62400.31;5006998;28;20042;-57
2024/03/18 00:58:24;;;;;;;39.47;11.30;;;;;;;-140.81;100.00;62400.31;4988701;28;20045;-57
2024/03/18 01:00:50;;;;;;;46.35;11.50;;;;;;;-140.81;100.00;62400.31;5005591;28;20037;-55
2024/03/18 01:03:16;;;;;;;45.70;10.75;;;;;;;-140.81;100.00;62400.31;5005352;28;20115;-56
2024/03/18 01:05:42;;;;;;;48.88;11.15;;;;;;;-140.81;100.00;62400.31;5001049;28;20088;-57
2024/03/18 01:08:08;;;;;;;40.78;11.80;;;;;;;-140.81;100.00;62400.31;5006044;28;20042;-53
2024/03/18 01:10:33;;;;;;;44.83;11.10;;;;;;;-140.81;100.00;62400.31;4988834;28;20157;-51
2024/03/18 01:12:59;;;;;;;50.00;12.25;;;;;;;-140.81;100.00;62400.31;4988988;28;20775;-55
2024/03/18 01:15:25;;;;;;;42.70;11.23;;;;;;;-140.81;100.00;62400.31;5005726;28;20376;-53
2024/03/18 01:17:52;;;;;;;52.00;12.13;;;;;;;-140.81;100.00;62400.31;4988522;28;20517;-56
2024/03/18 01:20:19;;;;;;;47.03;12.80;;;;;;;-140.81;100.00;62400.31;5004886;28;20050;-54
2024/03/18 01:22:45;;;;;;;38.67;10.65;;;;;;;-140.81;100.00;62400.31;5006246;28;20169;-57
2024/03/18 01:25:14;;;;;;;45.55;12.88;;;;;;;-140.81;100.00;62400.31;4988624;28;20276;-53
2024/03/18 01:27:40;;;;;;;53.47;13.23;;;;;;;-140.81;100.00;62400.31;5005273;28;20124;-56
2024/03/18 01:30:13;;;;;;;38.95;11.30;;;;;;;-140.81;100.00;62400.31;5000320;28;20172;-55
2024/03/18 01:32:39;;;;;;;39.72;12.15;;;;;;;-140.81;100.00;62400.31;4986676;28;20034;-56
2024/03/18 01:35:06;;;;;;;49.25;11.20;;;;;;;-140.81;100.00;62400.31;4969218;28;20156;-53
2024/03/18 01:37:35;;;;;;;45.05;11.75;;;;;;;-140.81;100.00;62400.31;4985248;28;20054;-59
2024/03/18 01:40:01;;;;;;;50.40;13.55;;;;;;;-140.81;100.00;62400.31;4998811;28;20041;-54
2024/03/18 01:42:27;;;;;;;38.08;12.43;;;;;;;-140.81;100.00;62400.31;5005425;28;20042;-52
2024/03/18 01:44:54;;;;;;;48.33;13.50;;;;;;;-140.81;100.00;62400.31;5004614;28;20050;-58
2024/03/18 01:47:21;;;;;;;42.97;13.70;;;;;;;-140.81;100.00;62400.31;5006196;28;20092;-55
2024/03/18 01:49:51;;;;;;;46.00;12.35;;;;;;;-140.81;100.00;62400.31;5004629;28;20509;-52
2024/03/18 01:52:21;;;;;;;33.92;12.52;;;;;;;-140.81;100.00;62400.31;4987838;28;20042;-53
2024/03/18 01:54:47;;;;;;;;;;;;;;;-140.81;100.00;62400.31;4989231;28;20711;-57
2024/03/18 01:57:14;;;;;;;42.92;11.35;;;;;;;-140.81;100.00;62400.31;5037694;28;20055;-57
2024/03/18 01:59:40;;;;;;;51.28;12.63;;;;;;;-140.81;100.00;62400.31;5005632;28;20046;-57
2024/03/18 02:02:06;;;;;;;43.13;11.27;;;;;;;-140.81;100.00;62400.31;5004538;28;20054;-57
2024/03/18 02:04:31;;;;;;;50.05;13.88;;;;;;;-140.81;100.00;62400.31;4971882;28;20099;-55
2024/03/18 02:06:57;;;;;;;57.35;14.30;;;;;;;-140.81;100.00;62400.31;5005039;28;20026;-56
2024/03/18 02:09:43;;;;;;;45.30;13.23;;;;;;;-140.81;100.00;62400.31;5004337;28;20064;-57
2024/03/18 02:12:11;;;;;;;50.83;12.80;;;;;;;-140.81;100.00;62400.31;5004504;28;20041;-56
2024/03/18 02:14:37;;;;;;;44.75;13.77;;;;;;;-140.81;100.00;62400.31;5004744;28;20181;-57
2024/03/18 02:17:03;;;;;;;37.58;12.07;;;;;;;-140.81;100.00;62400.31;4988436;28;20628;-55
2024/03/18 02:19:29;;;;;;;38.05;11.70;;;;;;;-140.81;100.00;62400.31;5005809;28;20099;-56
2024/03/18 02:21:55;;;;;;;31.80;11.85;;;;;;;-140.81;100.00;62400.31;4988410;28;20038;-57
2024/03/18 02:24:22;;;;;;;41.80;13.23;;;;;;;-140.81;100.00;62400.31;4988706;28;20046;-56
2024/03/18 02:26:48;;;;;;;48.78;12.60;;;;;;;-140.81;100.00;62400.31;4972438;28;20398;-54
2024/03/18 02:29:14;;;;;;;42.90;12.50;;;;;;;-140.81;100.00;62400.31;4988494;28;20049;-55
2024/03/18 02:31:40;;;;;;;48.13;13.13;;;;;;;-140.81;100.00;62400.31;5003001;28;20555;-57
2024/03/18 02:34:05;;;;;;;42.53;11.90;;;;;;;-140.81;100.00;62400.31;5007671;28;20046;-54
2024/03/18 02:36:31;;;;;;;43.22;12.48;;;;;;;-140.81;100.00;62400.31;5007922;28;20037;-56
2024/03/18 02:38:59;;;;;;;59.17;13.57;;;;;;;-140.81;100.00;62400.31;5009044;28;20045;-56
2024/03/18 02:41:25;;;;;;;43.88;13.63;;;;;;;-140.81;100.00;62400.31;5008573;28;20050;-56
2024/03/18 02:43:51;;;;;;;47.67;14.68;;;;;;;-140.81;100.00;62400.31;5007721;28;20038;-56
2024/03/18 02:46:17;;;;;;;39.05;12.40;;;;;;;-140.81;100.00;62400.31;5009260;28;20060;-53
2024/03/18 02:48:43;;;;;;;44.22;13.05;;;;;;;-140.81;100.00;62400.31;5007910;28;20038;-55
2024/03/18 02:51:09;;;;;;;45.58;14.13;;;;;;;-140.81;100.00;62400.31;4991187;28;20037;-54
2024/03/18 02:53:35;;;;;;;46.50;13.73;;;;;;;-140.81;100.00;62400.31;5009422;28;20179;-53
2024/03/18 02:56:00;;;;;;;47.30;12.50;;;;;;;-140.81;100.00;62400.31;4975150;28;20045;-54
2024/03/18 02:58:26;;;;;;;52.00;14.27;;;;;;;-140.81;100.00;62400.31;5009280;28;20529;-56
2024/03/18 03:00:52;;;;;;;54.88;14.48;;;;;;;-140.81;100.00;62400.31;4991126;28;20510;-54
2024/03/18 03:03:18;;;;;;;46.83;14.05;;;;;;;-140.81;100.00;62400.31;4988167;28;20046;-57
2024/03/18 03:05:45;;;;;;;51.28;14.07;;;;;;;-140.81;100.00;62400.31;4989821;28;20045;-55
2024/03/18 03:08:11;;;;;;;36.55;13.15;;;;;;;-140.81;100.00;62400.31;5004479;28;20046;-53
2024/03/18 03:10:39;;;;;;;40.63;14.02;;;;;;;-140.81;100.00;62400.31;5004639;28;20184;-55
2024/03/18 03:13:05;;;;;;;44.55;13.70;;;;;;;-140.81;100.00;62400.31;5004360;28;20042;-55
2024/03/18 03:15:35;;;;;;;44.83;13.50;;;;;;;-140.81;100.00;62400.31;4990324;28;20037;-58
2024/03/18 03:18:03;;;;;;;53.60;14.60;;;;;;;-140.81;100.00;62400.31;5007363;28;20460;-54
2024/03/18 03:20:31;;;;;;;41.85;13.70;;;;;;;-140.81;100.00;62400.31;5007479;28;20041;-53
2024/03/18 03:22:58;;;;;;;44.22;14.15;;;;;;;-140.81;100.00;62400.31;4991119;28;20519;-55
2024/03/18 03:25:25;;;;;;;47.55;15.02;;;;;;;-140.81;100.00;62400.31;4975010;28;20060;-54
2024/03/18 03:27:50;;;;;;;49.25;14.43;;;;;;;-140.81;100.00;62400.31;4990791;28;20044;-56
2024/03/18 03:30:16;;;;;;;52.67;15.82;;;;;;;-140.81;100.00;62400.31;5007054;28;20045;-55
2024/03/18 03:32:42;;;;;;;43.15;14.57;;;;;;;-140.81;100.00;62400.31;4985810;28;20480;-56
2024/03/18 03:35:08;;;;;;;60.47;15.85;;;;;;;-140.81;100.00;62400.31;4987636;28;20538;-58
2024/03/18 03:37:35;;;;;;;44.55;14.80;;;;;;;-140.81;100.00;62400.31;4969794;28;20054;-56
2024/03/18 03:40:01;;;;;;;45.50;15.38;;;;;;;-140.81;100.00;62400.31;5017818;28;20052;-53
2024/03/18 03:42:27;;;;;;;47.08;15.15;;;;;;;-140.81;100.00;62400.31;4986212;28;20145;-58
2024/03/18 03:44:53;;;;;;;50.05;15.27;;;;;;;-140.81;100.00;62400.31;4990642;28;20046;-59
2024/03/18 03:47:19;;;;;;;40.05;13.50;;;;;;;-140.81;100.00;62400.31;5008620;28;20041;-55
2024/03/18 03:49:44;;;;;;;45.53;15.48;;;;;;;-140.81;100.00;62400.31;5007166;28;20052;-56
2024/03/18 03:52:10;;;;;;;50.97;15.23;;;;;;;-140.81;100.00;62400.31;5008275;28;20636;-54
2024/03/18 03:54:36;;;;;;;48.75;14.23;;;;;;;-140.81;100.00;62400.31;5006370;28;20117;-54
2024/03/18 03:57:01;;;;;;;54.97;15.18;;;;;;;-140.81;100.00;62400.31;5006592;28;20041;-56
2024/03/18 03:59:27;;;;;;;53.75;14.93;;;;;;;-140.81;100.00;62400.31;4986106;28;20453;-54
2024/03/18 04:01:54;;;;;;;60.92;15.85;;;;;;;-140.81;100.00;62400.31;4988654;28;20074;-56
2024/03/18 04:04:20;;;;;;;61.72;15.80;;;;;;;-140.81;100.00;62400.31;5028924;28;20038;-54
2024/03/18 04:06:46;;;;;;;50.90;16.70;;;;;;;-140.81;100.00;62400.31;5007576;28;20041;-52
2024/03/18 04:09:12;;;;;;;42.38;13.98;;;;;;;-140.81;100.00;62400.31;4990119;28;20091;-54
2024/03/18 04:11:38;;;;;;;36.97;14.55;;;;;;;-140.81;100.00;62400.31;5006746;28;20041;-56
2024/03/18 04:14:05;;;;;;;41.28;13.90;;;;;;;-140.81;100.00;62400.31;5000478;28;20050;-54
2024/03/18 04:16:30;;;;;;;44.17;14.23;;;;;;;-140.81;100.00;62400.31;5007634;28;20050;-53
2024/03/18 04:18:56;;;;;;;54.78;14.90;;;;;;;-140.81;100.00;62400.31;4973973;28;20038;-56
2024/03/18 04:21:22;;;;;;;52.15;15.23;;;;;;;-140.81;100.00;62400.31;4989954;28;20037;-58
2024/03/18 04:23:47;;;;;;;45.50;15.50;;;;;;;-140.81;100.00;62400.31;5007255;28;20213;-56
2024/03/18 04:26:13;;;;;;;49.03;15.10;;;;;;;-140.81;100.00;62400.31;5005735;28;20513;-56
2024/03/18 04:28:39;;;;;;;47.22;15.82;;;;;;;-140.81;100.00;62400.31;5006201;28;20064;-55
2024/03/18 04:31:11;;;;;;;60.65;15.85;;;;;;;-140.81;100.00;62400.31;5006318;28;20844;-57
2024/03/18 04:33:40;;;;;;;52.88;14.82;;;;;;;-140.81;100.00;62400.31;5007594;28;20506;-58
2024/03/18 04:36:06;;;;;;;49.47;15.05;;;;;;;-140.81;100.00;62400.31;4989465;28;20529;-57
2024/03/18 04:38:32;;;;;;;49.15;14.95;;;;;;;-140.81;100.00;62400.31;4970026;28;20053;-55
2024/03/18 04:40:59;;;;;;;48.40;16.15;;;;;;;-140.81;100.00;62400.31;4986213;28;20050;-52
2024/03/18 04:43:24;;;;;;;62.35;16.98;;;;;;;-140.81;100.00;62400.31;4987162;28;20179;-50
2024/03/18 04:45:52;;;;;;;50.42;15.32;;;;;;;-140.81;100.00;62400.31;4989334;28;20037;-54
2024/03/18 04:48:17;;;;;;;52.97;16.52;;;;;;;-140.81;100.00;62400.31;5005556;28;20542;-54
2024/03/18 04:50:43;;;;;;;53.33;17.70;;;;;;;-140.81;100.00;62400.31;4989519;28;20045;-53
2024/03/18 04:53:09;;;;;;;51.45;16.48;;;;;;;-140.81;100.00;62400.31;5007561;28;20045;-57
2024/03/18 04:55:35;;;;;;;58.03;16.15;;;;;;;-140.81;100.00;62400.31;5006066;28;20537;-57
2024/03/18 04:58:01;;;;;;;46.45;15.27;;;;;;;-140.81;100.00;62400.31;4989365;23;20050;-55
2024/03/18 05:00:27;;;;;;;52.25;16.02;;;;;;;-140.81;100.00;62400.31;4965392;28;20066;-55
2024/03/18 05:02:53;;;;;;;60.22;16.33;;;;;;;-140.81;100.00;62400.31;4949378;28;20571;-58
2024/03/18 05:05:19;;;;;;;50.45;17.95;;;;;;;-140.81;100.00;62400.31;4966697;28;20055;-57
2024/03/18 05:07:45;;;;;;;45.13;15.05;;;;;;;-140.81;100.00;62400.31;4967078;28;20054;-54
2024/03/18 05:10:12;;;;;;;53.00;16.17;;;;;;;-140.81;100.00;62400.31;4948466;28;20047;-59
2024/03/18 05:12:39;;;;;;;43.05;17.35;;;;;;;-140.81;100.00;62400.31;4962666;28;20479;-57
2024/03/18 05:15:07;;;;;;;46.05;15.55;;;;;;;-140.81;100.00;62400.31;4952622;28;20039;-60
2024/03/18 05:17:34;;;;;;;57.83;15.98;;;;;;;-140.81;100.00;62400.31;4962760;28;20050;-62
2024/03/18 05:20:00;;;;;;;48.55;16.13;;;;;;;-140.81;100.00;62400.31;4962899;28;20094;-60
2024/03/18 05:22:26;;;;;;;57.88;16.10;;;;;;;-140.81;100.00;62400.31;4975460;28;20057;-58
2024/03/18 05:24:51;;;;;;;44.65;14.60;;;;;;;-140.81;100.00;62400.31;4965310;28;20046;-61
2024/03/18 05:27:19;;;;;;;51.17;15.88;;;;;;;-140.81;100.00;62400.31;4967536;28;20093;-60
2024/03/18 05:29:45;;;;;;;48.78;16.85;;;;;;;-140.81;100.00;62400.31;4966937;28;20339;-55
2024/03/18 05:32:15;;;;;;;58.60;17.08;;;;;;;-140.81;100.00;62400.31;4936320;28;20597;-55
2024/03/18 05:34:42;;;;;;;45.13;15.02;;;;;;;-140.81;100.00;62400.31;4965735;28;20038;-55
2024/03/18 05:37:09;;;;;;;55.50;14.93;;;;;;;-140.81;100.00;62400.31;4965602;28;20058;-58
2024/03/18 05:39:36;;;;;;;47.00;15.20;;;;;;;-140.81;100.00;62400.31;4965537;28;20035;-56
2024/03/18 05:42:02;;;;;;;52.63;17.70;;;;;;;-140.81;100.00;62400.31;4949912;28;20058;-55
2024/03/18 05:44:28;;;;;;;56.22;18.30;;;;;;;-140.81;100.00;62400.31;4981747;28;20588;-57
2024/03/18 05:46:54;;;;;;;69.75;20.60;;;;;;;-140.81;100.00;62400.31;4965976;28;20499;-55
2024/03/18 05:49:20;;;;;;;62.03;17.83;;;;;;;-140.81;100.00;62400.31;4949984;28;20043;-57
2024/03/18 05:51:48;;;;;;;48.40;15.93;;;;;;;-140.81;100.00;62400.31;4966046;28;20047;-58
2024/03/18 05:54:15;;;;;;;50.17;16.13;;;;;;;-140.81;100.00;62400.31;4977130;28;20510;-56
2024/03/18 05:56:43;;;;;;;53.72;17.15;;;;;;;-140.81;100.00;62400.31;4969282;28;20126;-55
2024/03/18 05:59:12;;;;;;;46.70;19.08;;;;;;;-140.81;100.00;62400.31;4969798;28;20070;-59
2024/03/18 06:01:39;;;;;;;53.97;17.73;;;;;;;-140.81;100.00;62400.31;4954043;28;20101;-54
2024/03/18 06:04:05;;;;;;;60.47;16.83;;;;;;;-140.81;100.00;62400.31;4969350;28;20034;-55
2024/03/18 06:06:32;;;;;;;62.13;16.88;;;;;;;-140.81;100.00;62400.31;4970971;28;20560;-56
2024/03/18 06:08:59;;;;;;;57.15;16.38;;;;;;;-140.81;100.00;62400.31;4968889;28;20081;-59
2024/03/18 06:11:25;;;;;;;52.80;19.38;;;;;;;-140.81;100.00;62400.31;4953172;28;20093;-59
2024/03/18 06:13:52;;;;;;;53.08;15.52;;;;;;;-140.81;100.00;62400.31;4985278;28;20051;-58
2024/03/18 06:16:17;;;;;;;43.22;15.48;;;;;;;-140.81;100.00;62400.31;4970059;28;20069;-59
2024/03/18 06:18:43;;;;;;;57.60;16.70;;;;;;;-140.81;100.00;62400.31;4985597;28;20629;-57
2024/03/18 06:21:16;;;;;;;48.50;16.58;;;;;;;-140.81;100.00;62400.31;4969809;28;20046;-55
2024/03/18 06:23:50;;;;;;;53.53;18.20;;;;;;;-140.81;100.00;62400.31;4953380;28;20039;-52
2024/03/18 06:26:17;;;;;;;52.20;16.33;;;;;;;-140.81;100.00;62400.31;4984606;28;20051;-52
2024/03/18 06:28:44;;;;;;;53.35;17.90;;;;;;;-140.81;100.00;62400.31;4968719;28;20085;-54
2024/03/18 06:31:13;;;;;;;49.35;17.27;;;;;;;-140.81;100.00;62400.31;4953226;28;20066;-53
2024/03/18 06:33:40;;;;;;;42.63;15.30;;;;;;;-140.81;100.00;62400.31;4985383;28;20070;-53
2024/03/18 06:36:09;;;;;;;58.78;17.60;;;;;;;-140.81;100.00;62400.31;4965234;28;20533;-51
2024/03/18 06:38:36;;;;;;;51.22;16.23;;;;;;;-140.81;100.00;62400.31;4964814;28;20043;-53
2024/03/18 06:41:02;;;;;;;47.78;15.60;;;;;;;-140.81;100.00;62400.31;4933566;29;20082;-54
2024/03/18 06:43:28;;;;;;;59.63;16.27;;;;;;;-140.81;100.00;62400.31;4933667;29;20075;-50
2024/03/18 06:45:54;;;;;;;45.70;15.95;;;;;;;-140.81;100.00;62400.31;4955414;28;20142;-55
2024/03/18 06:48:19;;;;;;;47.53;16.73;;;;;;;-140.81;100.00;62400.31;4970474;28;20046;-54
2024/03/18 06:50:45;;;;;;;50.85;16.55;;;;;;;-140.81;100.00;62400.31;4963689;28;20445;-56
2024/03/18 06:53:11;;;;;;;63.08;17.60;;;;;;;-140.81;100.00;62400.31;4933944;29;20054;-57
2024/03/18 06:55:40;;;;;;;60.03;15.90;;;;;;;-140.81;100.00;62400.31;4950365;28;20133;-53
2024/03/18 06:58:06;;;;;;;56.80;17.27;;;;;;;-140.81;100.00;62400.31;4969161;28;20109;-53
2024/03/18 07:00:34;;;;;;;50.85;16.25;;;;;;;-140.81;100.00;62400.31;4974790;28;20563;-55
2024/03/18 07:03:00;;;;;;;60.50;17.27;;;;;;;-140.81;100.00;62400.31;4936976;28;20045;-54
2024/03/18 07:05:27;;;;;;;62.65;18.02;;;;;;;-140.81;100.00;62400.31;4952422;28;20129;-57
2024/03/18 07:07:53;;;;;;;51.60;16.60;;;;;;;-140.81;100.00;62400.31;4935983;28;20120;-57
2024/03/18 07:10:19;;;;;;;57.83;17.55;;;;;;;-140.81;100.00;62400.31;4965408;28;20121;-56
2024/03/18 07:12:46;;;;;;;58.60;18.48;;;;;;;-140.81;100.00;62400.31;4917877;29;20047;-54
2024/03/18 07:15:15;;;;;;;58.05;18.42;;;;;;;-140.81;100.00;62400.31;4965977;28;20043;-53
2024/03/18 07:17:41;;;;;;;53.65;17.27;;;;;;;-140.81;100.00;62400.31;4957691;28;20040;-53
2024/03/18 07:20:08;;;;;;;52.08;16.38;;;;;;;-140.81;100.00;62400.31;4965661;28;20047;-56
2024/03/18 07:22:34;;;;;;;61.53;19.02;;;;;;;-140.81;100.00;62400.31;4933769;29;20043;-55
2024/03/18 07:25:00;;;;;;;49.08;15.88;;;;;;;-140.81;100.00;62400.31;4949755;28;20069;-56
2024/03/18 07:27:29;;;;;;;54.60;16.38;;;;;;;-140.81;100.00;62400.31;4940083;28;20116;-55
2024/03/18 07:29:58;;;;;;;;;;;;;;;-140.81;100.00;62400.31;4984614;28;20113;-55
2024/03/18 07:32:24;;;;;;;50.30;18.23;;;;;;;-140.81;100.00;62400.31;4969825;28;20016;-54
2024/03/18 07:34:51;;;;;;;45.80;16.25;;;;;;;-140.81;100.00;62400.31;4968353;28;20091;-55
2024/03/18 07:37:17;;;;;;;47.20;16.25;;;;;;;-140.81;100.00;62400.31;4951757;28;20053;-60
2024/03/18 07:39:47;;;;;;;49.33;15.80;;;;;;;-140.81;100.00;62400.31;4936427;28;20554;-51
2024/03/18 07:42:13;;;;;;;;;;;;;;;-140.81;100.00;62400.31;4968899;28;20050;-56
2024/03/18 07:44:42;;;;;;;52.55;16.27;;;;;;;-140.81;100.00;62400.31;4984306;28;19972;-54
2024/03/18 07:47:08;;;;;;;51.58;17.42;;;;;;;-140.81;100.00;62400.31;4984452;28;20050;-55
2024/03/18 07:49:38;;;;;;;48.90;16.35;;;;;;;-140.81;100.00;62400.31;4964037;28;20046;-56
2024/03/18 07:52:04;;;;;;;;;;;;;;;-140.81;100.00;62400.31;4950752;28;20047;-56
2024/03/18 07:54:34;;;;;;;60.08;15.90;;;;;;;-140.81;100.00;62400.31;4948738;29;19929;-56
2024/03/18 07:57:01;;;;;;;52.55;15.73;;;;;;;-140.81;100.00;62400.31;4948631;28;20421;-58
2024/03/18 07:59:27;;;;;;;56.85;15.40;;;;;;;-140.81;100.00;62400.31;4945442;28;20434;-56
2024/03/18 08:01:53;;;;;;;45.40;15.80;;;;;;;-140.81;100.00;62400.31;4951691;28;20049;-56
2024/03/18 08:04:19;;;;;;;46.70;16.05;;;;;;;-140.81;100.00;62400.31;4951578;28;20050;-57
2024/03/18 08:06:46;;;;;;;53.35;17.83;;;;;;;-140.81;100.00;62400.31;4952113;28;20042;-50
2024/03/18 08:09:17;;;;;;;54.78;16.48;;;;;;;-140.81;100.00;62400.31;4951776;28;20042;-57
2024/03/18 08:11:43;;;;;;;50.63;14.95;;;;;;;-140.81;100.00;62400.31;4951982;28;20137;-57
2024/03/18 08:14:09;;;;;;;42.13;15.48;;;;;;;-140.81;100.00;62400.31;4966896;28;20057;-56
2024/03/18 08:16:35;;;;;;;48.83;15.93;;;;;;;-140.81;100.00;62400.31;4933308;28;20152;-54
2024/03/18 08:19:03;;;;;;;61.47;16.83;;;;;;;-140.81;100.00;62400.31;4978881;28;20043;-53
2024/03/18 08:21:33;;;;;;;43.78;15.25;;;;;;;-140.81;100.00;62400.31;4940892;28;20039;-54
2024/03/18 08:23:59;;;;;;;51.28;17.00;;;;;;;-140.81;100.00;62400.31;4924274;28;20053;-53
2024/03/18 08:26:25;;;;;;;47.28;16.65;;;;;;;-140.81;100.00;62400.31;4960661;28;20714;-54
2024/03/18 08:28:55;;;;;;;43.80;15.77;;;;;;;-140.81;100.00;62400.31;4938606;28;20054;-52
2024/03/18 08:31:21;;;;;;;54.63;16.75;;;;;;;-140.81;100.00;62400.31;4959995;28;20057;-56
2024/03/18 08:33:46;;;;;;;47.67;15.82;;;;;;;-140.81;100.00;62400.31;4956560;28;20039;-55
2024/03/18 08:36:12;;;;;;;54.55;17.48;;;;;;;-140.81;100.00;62400.31;4959011;28;20042;-55
2024/03/18 08:38:41;;;;;;;56.20;16.70;;;;;;;-140.81;100.00;62400.31;4957736;28;20050;-56
2024/03/18 08:41:07;;;;;;;55.60;16.40;;;;;;;-140.81;100.00;62400.31;4951170;28;20118;-53
2024/03/18 08:43:33;;;;;;;61.38;15.85;;;;;;;-140.81;100.00;62400.31;4949147;28;20138;-54
2024/03/18 08:46:01;;;;;;;60.38;16.58;;;;;;;-140.81;100.00;62400.31;4947581;28;20134;-57
2024/03/18 08:48:27;;;;;;;48.80;15.38;;;;;;;-140.81;100.00;62400.31;4960862;28;20043;-53
2024/03/18 08:50:53;;;;;;;56.05;16.45;;;;;;;-140.81;100.00;62400.31;4966122;28;20050;-51
2024/03/18 08:53:19;;;;;;;63.78;16.15;;;;;;;-140.81;100.00;62400.31;4934632;28;20043;-57
2024/03/18 08:55:46;;;;;;;71.32;18.08;;;;;;;-140.81;100.00;62400.31;4968020;28;20043;-51
2024/03/18 08:58:13;;;;;;;53.75;17.10;;;;;;;-140.81;100.00;62400.31;4962664;28;20046;-55
2024/03/18 09:00:39;;;;;;;54.42;17.75;;;;;;;-140.81;100.00;62400.31;4976307;28;20154;-54
2024/03/18 09:03:04;;;;;;;52.35;16.80;;;;;;;-140.81;100.00;62400.31;4966450;28;20054;-53
2024/03/18 09:05:31;;;;;;;47.53;15.35;;;;;;;-140.81;100.00;62400.31;4967418;28;20038;-54
2024/03/18 09:07:57;;;;;;;47.95;15.25;;;;;;;-140.81;100.00;62400.31;4965197;28;20070;-54
2024/03/18 09:10:23;;;;;;;59.90;17.45;;;;;;;-140.81;100.00;62400.31;4966107;28;20422;-54
2024/03/18 09:12:48;;;;;;;57.30;16.52;;;;;;;-140.81;100.00;62400.31;4967410;28;20055;-52
2024/03/18 09:15:14;;;;;;;54.85;16.80;;;;;;;-140.81;100.00;62400.31;4930704;28;20541;-51
2024/03/18 09:17:41;;;;;;;45.65;15.52;;;;;;;-140.81;100.00;62400.31;4947264;29;20479;-56
2024/03/18 09:20:10;;;;;;;49.47;15.23;;;;;;;-140.81;100.00;62400.31;4966799;28;20043;-56
2024/03/18 09:22:39;;;;;;;45.47;16.15;;;;;;;-140.81;100.00;62400.31;4966050;28;20047;-52
2024/03/18 09:25:06;;;;;;;56.47;15.43;;;;;;;-140.81;100.00;62400.31;4982611;28;20034;-56
2024/03/18 09:27:36;;;;;;;42.80;13.77;;;;;;;-140.81;100.00;62400.31;4967618;28;20039;-56
2024/03/18 09:30:02;;;;;;;45.72;14.88;;;;;;;-140.81;100.00;62400.31;4980962;28;20125;-57
2024/03/18 09:32:29;;;;;;;59.33;17.55;;;;;;;-140.81;100.00;62400.31;4966963;28;20065;-53
2024/03/18 09:34:58;;;;;;;52.15;16.02;;;;;;;-140.81;100.00;62400.31;4931138;28;20047;-55
2024/03/18 09:37:25;;;;;;;49.90;15.60;;;;;;;-140.81;100.00;62400.31;4948106;28;20046;-54
2024/03/18 09:39:51;;;;;;;51.78;16.38;;;;;;;-140.81;100.00;62400.31;4957647;28;20035;-57
2024/03/18 09:42:17;;;;;;;50.15;15.02;;;;;;;-140.81;100.00;62400.31;4981776;28;20562;-55
2024/03/18 09:44:44;;;;;;;52.22;15.13;;;;;;;-140.81;100.00;62400.31;4965992;28;20042;-55
2024/03/18 09:47:22;;;;;;;50.70;15.73;;;;;;;-140.81;100.00;62400.31;4966031;28;20043;-56
2024/03/18 09:49:52;;;;;;;50.03;15.07;;;;;;;-140.81;100.00;62400.31;4967053;28;20047;-55
2024/03/18 09:52:20;;;;;;;51.28;17.23;;;;;;;-140.81;100.00;62400.31;4974569;28;20158;-58
2024/03/18 09:54:46;;;;;;;51.55;15.63;;;;;;;-140.81;100.00;62400.31;4967614;28;20042;-58
2024/03/18 09:57:24;;;;;;;46.25;16.08;;;;;;;-140.81;100.00;62400.31;4967448;28;20046;-52
2024/03/18 09:59:53;;;;;;;53.45;16.15;;;;;;;-140.81;100.00;62400.31;4966835;28;20491;-50
2024/03/18 10:02:19;;;;;;;46.15;15.48;;;;;;;-140.81;100.00;62400.31;4967449;28;20034;-55
2024/03/18 10:04:46;;;;;;;46.33;15.15;;;;;;;-140.81;100.00;62400.31;4978784;28;20043;-56
2024/03/18 10:07:14;;;;;;;40.70;14.80;;;;;;;-140.81;100.00;62400.31;4960766;28;20043;-55
2024/03/18 10:09:41;;;;;;;49.15;14.60;;;;;;;-140.81;100.00;62400.31;4949797;28;20133;-57
2024/03/18 10:12:14;;;;;;;58.03;15.23;;;;;;;-140.81;100.00;62400.31;4967543;28;20042;-55
2024/03/18 10:14:41;;;;;;;57.65;16.33;;;;;;;-140.81;100.00;62400.31;4966022;28;20105;-57
2024/03/18 10:17:15;;;;;;;56.40;14.82;;;;;;;-140.81;100.00;62400.31;4949812;28;20039;-54
2024/03/18 10:19:44;;;;;;;38.67;14.35;;;;;;;-140.81;100.00;62400.31;4967454;28;20043;-55
2024/03/18 10:22:11;;;;;;;;;;;;;;;-140.81;100.00;62400.31;4962537;28;20050;-53
2024/03/18 10:24:41;;;;;;;48.55;15.95;;;;;;;-140.81;100.00;62400.31;4978316;28;20012;-53
2024/03/18 10:27:07;;;;;;;48.58;16.65;;;;;;;-140.81;100.00;62400.31;4965025;28;20094;-58
2024/03/18 10:29:34;;;;;;;43.22;15.75;;;;;;;-140.81;100.00;62400.31;4954179;28;20557;-50
2024/03/18 10:32:01;;;;;;;59.35;17.60;;;;;;;-140.81;100.00;62400.31;4976586;28;20058;-55
2024/03/18 10:34:31;;;;;;;56.03;17.75;;;;;;;-140.81;100.00;62400.31;4965570;28;20051;-53
2024/03/18 10:36:59;;;;;;;52.33;16.42;;;;;;;-140.81;100.00;62400.31;4949317;28;20035;-55
2024/03/18 10:39:39;;;;;;;62.03;18.17;;;;;;;-140.81;100.00;62400.31;4949265;28;20050;-52
2024/03/18 10:42:06;;;;;;;57.60;18.63;;;;;;;-140.81;100.00;62400.31;4942691;28;20039;-52
2024/03/18 10:44:38;;;;;;;62.40;19.85;;;;;;;-140.81;100.00;62400.31;4949395;28;20043;-54
2024/03/18 10:47:04;;;;;;;62.33;18.63;;;;;;;-140.81;100.00;62400.31;4949481;28;20062;-52
2024/03/18 10:49:30;;;;;;;61.60;19.25;;;;;;;-140.81;100.00;62400.31;4949324;29;20095;-50
2024/03/18 10:51:56;;;;;;;58.13;19.02;;;;;;;-140.81;100.00;62400.31;4976550;28;20138;-53
2024/03/18 10:54:23;;;;;;;52.72;18.70;;;;;;;-140.81;100.00;62400.31;4934540;28;20042;-55
2024/03/18 10:56:49;;;;;;;52.67;18.50;;;;;;;-140.81;100.00;62400.31;4952426;28;20038;-56